Terminal Aerodrome Forecast
Issued by NWS

Home | Current Version | Previous Version | Text Only | Print | Product List | Glossary On
Versions: 1 2 3 4 5 6 7 8 9 10 11 12 13 14 15 16 17 18 19 20 21 22 23 24 25 26 27 28 29 30 31 32 33 34 35 36 37 38 39 40 41 42 43 44 45
000
FTUS45 KBOU 291740
TAFAPA
TAF
KAPA 291740Z 2918/3018 08007KT P6SM FEW220
     FM292000 12008KT P6SM FEW220
     FM292300 15008KT P6SM FEW220
     FM300500 18006KT P6SM SKC
     FM301600 VRB05KT P6SM FEW220=

USA.gov is the U.S. government's official web portal to all federal, state and local government web resources and services.